Time;durP1;ratioP1;P1;durP2;ratioP2;P2;SDS_P1;SDS_P2;PMS_P1;PMS_P2;Temp;Humidity;BMP_temperature;BMP_pressure;BME280_temperature;BME280_humidity;BME280_pressure;Samples;Min_cycle;Max_cycle;Signal;HPM_P1;HPM_P2
2022/09/23 00:01:07;;;;;;;10.07;5.70;;;;;;;6.37;100.00;96891.53;5022587;28;20049;-65
2022/09/23 00:03:36;;;;;;;10.68;6.05;;;;;;;6.39;100.00;96892.00;5022160;28;20071;-64
2022/09/23 00:06:07;;;;;;;5.97;4.25;;;;;;;6.38;100.00;96888.50;5022096;28;20053;-67
2022/09/23 00:08:32;;;;;;;5.38;3.47;;;;;;;6.24;100.00;96888.75;5023357;28;20141;-65
2022/09/23 00:11:06;;;;;;;7.05;3.25;;;;;;;6.21;100.00;96883.19;5024316;28;20817;-64
2022/09/23 00:13:33;;;;;;;4.75;3.20;;;;;;;6.16;100.00;96888.84;5039196;28;20046;-65
2022/09/23 00:16:03;;;;;;;5.80;3.58;;;;;;;6.12;100.00;96881.38;5021791;28;20610;-64
2022/09/23 00:18:28;;;;;;;4.47;3.08;;;;;;;6.12;100.00;96881.38;5021723;28;20402;-65
2022/09/23 00:20:54;;;;;;;9.63;4.65;;;;;;;6.15;100.00;96881.81;5023507;28;20051;-65
2022/09/23 00:23:19;;;;;;;4.72;3.47;;;;;;;6.19;100.00;96888.19;5012724;28;20124;-65
2022/09/23 00:25:53;;;;;;;7.70;3.80;;;;;;;6.17;100.00;96888.50;5025452;28;20115;-65
2022/09/23 00:28:19;;;;;;;5.13;4.00;;;;;;;6.11;100.00;96892.56;5018686;28;20045;-63
2022/09/23 00:30:44;;;;;;;7.82;5.00;;;;;;;6.08;100.00;96890.50;5012930;28;20072;-65
2022/09/23 00:33:09;;;;;;;5.93;3.90;;;;;;;6.18;100.00;96889.31;5020868;28;20046;-65
2022/09/23 00:35:35;;;;;;;4.43;3.25;;;;;;;6.09;100.00;96890.19;5035404;28;20034;-66
2022/09/23 00:38:00;;;;;;;9.00;3.35;;;;;;;6.06;100.00;96892.78;5038553;28;20052;-65
2022/09/23 00:40:25;;;;;;;8.05;3.55;;;;;;;5.95;100.00;96884.19;5029101;28;20118;-65
2022/09/23 00:42:51;;;;;;;5.22;3.28;;;;;;;5.73;100.00;96880.66;5025138;28;20033;-65
2022/09/23 00:45:17;;;;;;;4.43;3.22;;;;;;;5.77;100.00;96883.53;5009950;28;20509;-64
2022/09/23 00:47:49;;;;;;;5.15;3.50;;;;;;;5.81;100.00;96884.44;5026249;28;20045;-65
2022/09/23 00:50:29;;;;;;;6.40;3.65;;;;;;;5.86;100.00;96878.81;5026061;28;20202;-65
2022/09/23 00:52:55;;;;;;;;;;;;;;;5.97;100.00;96873.00;5024546;28;20041;-64
2022/09/23 00:55:29;;;;;;;7.90;3.60;;;;;;;5.97;100.00;96881.16;5019388;28;20317;-66
2022/09/23 00:57:57;;;;;;;7.22;3.88;;;;;;;5.92;100.00;96877.50;5023229;28;20072;-64
2022/09/23 01:00:23;;;;;;;5.60;3.50;;;;;;;5.85;100.00;96877.25;5011164;28;20213;-62
2022/09/23 01:02:50;;;;;;;6.20;3.10;;;;;;;5.77;100.00;96874.56;5022096;28;20179;-64
2022/09/23 01:05:16;;;;;;;7.22;4.00;;;;;;;5.69;100.00;96881.66;5019276;28;20478;-62
2022/09/23 01:07:43;;;;;;;4.93;3.53;;;;;;;5.64;100.00;96876.44;5022840;28;20064;-63
2022/09/23 01:10:09;;;;;;;7.55;4.18;;;;;;;5.61;100.00;96871.63;5010179;28;20046;-62
2022/09/23 01:12:38;;;;;;;4.68;3.72;;;;;;;5.48;100.00;96874.28;5020058;28;20046;-65
2022/09/23 01:15:30;;;;;;;7.95;3.92;;;;;;;5.24;100.00;96874.06;5012904;28;20361;-62
2022/09/23 01:18:07;;;;;;;5.97;3.47;;;;;;;5.25;100.00;96867.53;5034645;28;20569;-65
2022/09/23 01:20:45;;;;;;;7.70;3.70;;;;;;;5.27;100.00;96862.56;5033216;28;20037;-63
2022/09/23 01:23:35;;;;;;;4.18;3.10;;;;;;;5.32;100.00;96865.09;5025112;28;20096;-66
2022/09/23 01:26:59;;;;;;;5.57;3.83;;;;;;;5.31;100.00;96867.03;5032832;28;20128;-66
2022/09/23 01:29:57;;;;;;;5.65;4.05;;;;;;;5.34;100.00;96865.56;4991218;28;20042;-65
2022/09/23 01:32:55;;;;;;;6.45;3.55;;;;;;;5.32;100.00;96862.38;4991260;28;20121;-66
2022/09/23 01:35:50;;;;;;;5.10;3.83;;;;;;;5.26;100.00;96861.00;5031591;28;20497;-64
2022/09/23 01:38:29;;;;;;;5.90;3.85;;;;;;;5.36;100.00;96866.81;5032759;28;20043;-64
2022/09/23 01:41:09;;;;;;;7.80;3.90;;;;;;;5.47;100.00;96866.44;5030467;28;20029;-64
2022/09/23 01:43:58;;;;;;;5.22;3.58;;;;;;;5.51;100.00;96861.94;5032648;28;20026;-64
2022/09/23 01:46:31;;;;;;;5.70;4.03;;;;;;;5.47;100.00;96859.09;5032047;28;20021;-65
2022/09/23 01:49:20;;;;;;;5.47;3.70;;;;;;;5.46;100.00;96862.16;5032329;28;20037;-64
2022/09/23 01:51:52;;;;;;;5.90;4.00;;;;;;;5.38;100.00;96857.56;5044806;28;20111;-64
2022/09/23 01:54:31;;;;;;;5.97;3.80;;;;;;;5.36;100.00;96863.31;5031497;28;20044;-65
2022/09/23 01:57:00;;;;;;;4.95;3.83;;;;;;;5.32;100.00;96856.94;5031157;28;20433;-65
2022/09/23 01:59:37;;;;;;;7.78;4.07;;;;;;;5.31;100.00;96860.78;5032718;28;20729;-65
2022/09/23 02:02:40;;;;;;;7.35;4.43;;;;;;;5.26;100.00;96859.06;5022211;28;20469;-65
2022/09/23 02:05:19;;;;;;;9.40;4.28;;;;;;;4.98;100.00;96867.66;5041783;28;20093;-65
2022/09/23 02:08:04;;;;;;;5.43;3.88;;;;;;;4.76;100.00;96860.56;5022240;28;20308;-65
2022/09/23 02:10:43;;;;;;;5.68;3.97;;;;;;;4.86;100.00;96858.59;5037678;28;20041;-65
2022/09/23 02:13:16;;;;;;;7.57;3.95;;;;;;;4.95;100.00;96862.06;5036893;28;20498;-64
2022/09/23 02:15:49;;;;;;;6.47;4.20;;;;;;;4.98;100.00;96864.16;5033984;28;20044;-62
2022/09/23 02:18:20;;;;;;;9.45;4.70;;;;;;;4.68;100.00;96858.69;5053024;28;20044;-64
2022/09/23 02:20:51;;;;;;;5.13;4.32;;;;;;;4.36;100.00;96858.13;5045883;28;20029;-65
2022/09/23 02:23:26;;;;;;;6.88;4.18;;;;;;;4.28;100.00;96860.84;5032099;28;20060;-64
2022/09/23 02:26:27;;;;;;;7.63;4.47;;;;;;;4.42;100.00;96850.59;5024799;28;20441;-64
2022/09/23 02:29:13;;;;;;;8.32;4.57;;;;;;;4.59;100.00;96853.28;5032155;28;20514;-65
2022/09/23 02:32:18;;;;;;;7.30;4.38;;;;;;;4.67;100.00;96856.28;5031180;28;20063;-65
2022/09/23 02:35:04;;;;;;;5.55;4.07;;;;;;;4.64;100.00;96852.28;4993054;28;20099;-64
2022/09/23 02:37:42;;;;;;;6.22;4.22;;;;;;;4.64;100.00;96852.28;5011466;28;20046;-64
2022/09/23 02:40:39;;;;;;;8.35;4.38;;;;;;;4.53;100.00;96853.78;5028356;28;20029;-65
2022/09/23 02:43:21;;;;;;;7.22;4.18;;;;;;;4.48;100.00;96846.59;5031715;28;20397;-65
2022/09/23 02:45:46;;;;;;;4.90;3.80;;;;;;;4.50;100.00;96847.09;5031242;28;20030;-65
2022/09/23 02:48:18;;;;;;;6.60;4.22;;;;;;;4.57;100.00;96846.56;5029314;28;20091;-64
2022/09/23 02:50:44;;;;;;;7.00;4.07;;;;;;;4.55;100.00;96843.38;5047132;28;20057;-63
2022/09/23 02:53:10;;;;;;;7.55;4.32;;;;;;;4.52;100.00;96844.84;5032170;28;20033;-64
2022/09/23 02:55:35;;;;;;;9.65;4.70;;;;;;;4.56;100.00;96840.34;5032224;28;20028;-64
2022/09/23 02:58:04;;;;;;;5.22;4.07;;;;;;;4.62;100.00;96837.47;5032017;28;20033;-63
2022/09/23 03:00:48;;;;;;;6.28;4.15;;;;;;;4.68;100.00;96839.69;5032381;28;20087;-65
2022/09/23 03:03:55;;;;;;;7.05;4.43;;;;;;;4.62;100.00;96843.69;5029542;28;20021;-64
2022/09/23 03:06:30;;;;;;;5.40;4.18;;;;;;;4.48;100.00;96838.44;5011380;28;20040;-64
2022/09/23 03:09:07;;;;;;;6.68;4.68;;;;;;;4.49;100.00;96850.13;5026575;28;20490;-65
2022/09/23 03:11:36;;;;;;;7.03;4.70;;;;;;;4.55;100.00;96846.09;5025894;28;20029;-64
2022/09/23 03:14:17;;;;;;;5.22;4.00;;;;;;;4.52;100.00;96836.69;5046487;28;20039;-64
2022/09/23 03:16:52;;;;;;;8.15;4.82;;;;;;;4.56;100.00;96831.44;5029856;28;20022;-62
2022/09/23 03:19:33;;;;;;;5.63;4.00;;;;;;;4.59;100.00;96837.00;5031269;28;20544;-62
2022/09/23 03:22:34;;;;;;;11.48;4.60;;;;;;;4.47;100.00;96842.28;5031206;28;20045;-61
2022/09/23 03:25:06;;;;;;;7.30;4.10;;;;;;;4.20;100.00;96843.47;5030101;28;20172;-64
2022/09/23 03:27:34;;;;;;;7.75;4.28;;;;;;;3.80;100.00;96841.75;5030752;28;20033;-63
2022/09/23 03:30:01;;;;;;;6.65;4.57;;;;;;;3.61;100.00;96844.75;5031121;28;20036;-64
2022/09/23 03:32:28;;;;;;;5.93;4.05;;;;;;;3.45;100.00;96836.28;5031130;28;20029;-62
2022/09/23 03:34:57;;;;;;;10.23;4.55;;;;;;;3.65;100.00;96844.91;5031155;28;20547;-63
2022/09/23 03:37:32;;;;;;;7.97;4.47;;;;;;;3.68;100.00;96836.16;5030601;28;20037;-62
2022/09/23 03:40:26;;;;;;;5.60;4.25;;;;;;;3.67;100.00;96842.69;5029800;28;20441;-63
2022/09/23 03:42:55;;;;;;;7.28;4.20;;;;;;;3.77;100.00;96842.38;5029629;28;20052;-62
2022/09/23 03:45:29;;;;;;;8.77;4.40;;;;;;;3.94;100.00;96838.88;5031412;28;20179;-64
2022/09/23 03:47:55;;;;;;;5.97;4.43;;;;;;;4.07;100.00;96842.53;5032953;28;20459;-63
2022/09/23 03:50:21;;;;;;;6.57;4.35;;;;;;;4.14;100.00;96848.28;5038519;28;20029;-63
2022/09/23 03:52:48;;;;;;;6.80;4.50;;;;;;;4.20;100.00;96851.59;5030102;28;20033;-62
2022/09/23 03:55:15;;;;;;;6.97;4.65;;;;;;;4.19;100.00;96844.56;5030913;28;20034;-63
2022/09/23 03:57:41;;;;;;;8.85;4.88;;;;;;;4.22;100.00;96854.78;5032621;28;20036;-64
2022/09/23 04:00:08;;;;;;;6.15;4.38;;;;;;;4.17;100.00;96847.59;5033197;28;20037;-64
2022/09/23 04:02:34;;;;;;;5.13;3.95;;;;;;;4.17;100.00;96850.31;5032799;28;20471;-62
2022/09/23 04:05:00;;;;;;;6.85;4.25;;;;;;;4.12;100.00;96849.69;5030961;28;20079;-61
2022/09/23 04:07:26;;;;;;;6.13;4.43;;;;;;;4.12;100.00;96847.78;5029648;28;20048;-62
2022/09/23 04:09:51;;;;;;;6.70;4.40;;;;;;;4.08;100.00;96851.47;5030829;28;20040;-61
2022/09/23 04:12:17;;;;;;;6.88;4.03;;;;;;;4.01;100.00;96849.22;5023466;28;20042;-63
2022/09/23 04:14:43;;;;;;;7.85;4.18;;;;;;;3.70;100.00;96846.69;5024671;28;20044;-64
2022/09/23 04:17:10;;;;;;;5.50;4.28;;;;;;;3.49;100.00;96849.22;5034318;28;20076;-64
2022/09/23 04:19:36;;;;;;;7.15;5.22;;;;;;;3.55;100.00;96839.84;5034667;28;20029;-62
2022/09/23 04:22:02;;;;;;;7.85;4.82;;;;;;;3.43;100.00;96846.66;5033408;28;20100;-62
2022/09/23 04:24:27;;;;;;;5.93;4.35;;;;;;;3.45;100.00;96838.22;5033067;28;20029;-64
2022/09/23 04:26:54;;;;;;;9.10;4.55;;;;;;;3.69;100.00;96831.53;5016584;28;20117;-60
2022/09/23 04:29:20;;;;;;;9.23;4.80;;;;;;;3.71;100.00;96835.53;5030307;28;20051;-63
2022/09/23 04:31:46;;;;;;;7.95;4.60;;;;;;;3.76;100.00;96829.97;5049338;28;20033;-63
2022/09/23 04:34:12;;;;;;;7.10;5.10;;;;;;;3.80;100.00;96830.91;5034409;28;20116;-65
2022/09/23 04:36:38;;;;;;;8.68;5.03;;;;;;;3.82;100.00;96823.25;5053369;28;20061;-62
2022/09/23 04:39:05;;;;;;;8.40;4.90;;;;;;;3.83;100.00;96834.88;5039334;28;20836;-65
2022/09/23 04:41:30;;;;;;;7.22;5.35;;;;;;;3.75;100.00;96830.28;5041485;28;20065;-64
2022/09/23 04:43:56;;;;;;;6.97;5.40;;;;;;;3.58;100.00;96826.44;5039212;28;20026;-63
2022/09/23 04:46:22;;;;;;;6.13;4.70;;;;;;;3.50;100.00;96837.28;5033998;28;20435;-63
2022/09/23 04:48:48;;;;;;;7.00;4.50;;;;;;;3.45;100.00;96836.28;5033853;28;20040;-64
2022/09/23 04:51:19;;;;;;;7.90;5.22;;;;;;;3.47;100.00;96835.19;5049035;28;20034;-64
2022/09/23 04:53:47;;;;;;;7.65;4.95;;;;;;;3.48;100.00;96834.88;5030431;28;20037;-64
2022/09/23 04:56:13;;;;;;;6.93;5.18;;;;;;;3.36;100.00;96832.78;5015697;28;20030;-64
2022/09/23 04:58:39;;;;;;;12.63;5.65;;;;;;;3.51;100.00;96841.56;5032362;28;20040;-64
2022/09/23 05:01:16;;;;;;;9.40;5.88;;;;;;;3.40;100.00;96841.88;5024014;28;20038;-64
2022/09/23 05:03:43;;;;;;;7.93;5.90;;;;;;;3.14;100.00;96839.13;5032112;28;20039;-64
2022/09/23 05:06:12;;;;;;;9.20;4.97;;;;;;;3.11;100.00;96836.25;5032880;28;20049;-64
2022/09/23 05:08:38;;;;;;;12.15;5.68;;;;;;;3.23;100.00;96841.84;5030624;28;20037;-63
2022/09/23 05:11:04;;;;;;;8.20;5.80;;;;;;;3.41;100.00;96846.16;5048722;28;20084;-64
2022/09/23 05:13:31;;;;;;;9.93;5.53;;;;;;;3.54;100.00;96849.06;5033411;28;20036;-64
2022/09/23 05:16:01;;;;;;;8.00;5.53;;;;;;;3.59;100.00;96846.19;5032717;28;20514;-62
2022/09/23 05:18:30;;;;;;;8.55;5.22;;;;;;;3.71;100.00;96838.25;5032760;28;20033;-61
2022/09/23 05:20:56;;;;;;;6.97;5.00;;;;;;;3.75;100.00;96846.53;5044281;28;20057;-61
2022/09/23 05:23:23;;;;;;;7.40;5.03;;;;;;;3.66;100.00;96838.41;5028395;28;20056;-62
2022/09/23 05:25:54;;;;;;;8.73;5.10;;;;;;;3.46;100.00;96845.22;5032768;28;20029;-60
2022/09/23 05:28:20;;;;;;;8.60;5.35;;;;;;;3.90;100.00;96845.25;5033007;28;20037;-62
2022/09/23 05:30:45;;;;;;;8.27;5.25;;;;;;;4.61;100.00;96844.81;5032392;28;20033;-63
2022/09/23 05:33:11;;;;;;;7.53;4.85;;;;;;;5.30;100.00;96848.34;5031389;28;20064;-62
2022/09/23 05:35:36;;;;;;;8.02;5.07;;;;;;;6.02;100.00;96849.13;5048163;28;20037;-63
2022/09/23 05:38:02;;;;;;;8.00;4.15;;;;;;;6.78;100.00;96844.38;5031663;28;20037;-64
2022/09/23 05:40:27;;;;;;;5.72;3.80;;;;;;;7.29;100.00;96849.50;5032619;28;20025;-64
2022/09/23 05:42:53;;;;;;;6.93;4.30;;;;;;;7.52;100.00;96841.63;5031473;28;20108;-64
2022/09/23 05:45:18;;;;;;;5.85;3.75;;;;;;;7.94;100.00;96846.78;5032210;28;20039;-63
2022/09/23 05:47:43;;;;;;;6.50;3.75;;;;;;;8.58;100.00;96845.06;5048369;28;20041;-62
2022/09/23 05:50:09;;;;;;;7.00;3.50;;;;;;;9.19;100.00;96851.25;5032430;28;20372;-62
2022/09/23 05:52:35;;;;;;;7.15;3.50;;;;;;;9.66;100.00;96847.66;5028970;28;20044;-62
2022/09/23 05:55:01;;;;;;;6.38;3.60;;;;;;;10.07;99.98;96855.56;5030934;28;20030;-61
2022/09/23 05:57:27;;;;;;;5.03;3.60;;;;;;;10.46;97.39;96859.13;5031805;28;20036;-62
2022/09/23 05:59:52;;;;;;;7.38;3.83;;;;;;;10.85;94.97;96848.06;5032360;28;20037;-61
2022/09/23 06:02:18;;;;;;;7.75;3.63;;;;;;;11.29;92.40;96855.09;5032363;28;20130;-66
2022/09/23 06:04:43;;;;;;;7.18;3.83;;;;;;;11.80;89.34;96862.91;5032195;28;20498;-63
2022/09/23 06:07:09;;;;;;;12.68;3.40;;;;;;;11.88;89.64;96861.03;5030942;28;20026;-62
2022/09/23 06:09:35;;;;;;;6.57;3.13;;;;;;;11.96;88.00;96868.25;5031949;28;20037;-62
2022/09/23 06:12:00;;;;;;;10.07;4.13;;;;;;;11.93;87.37;96858.00;5032290;28;20040;-63
2022/09/23 06:14:26;;;;;;;9.35;3.40;;;;;;;12.14;87.60;96853.97;5032672;28;20548;-63
2022/09/23 06:16:51;;;;;;;6.80;2.90;;;;;;;12.50;83.42;96859.91;5032055;28;20021;-62
2022/09/23 06:19:17;;;;;;;6.32;3.08;;;;;;;12.41;87.69;96866.47;5032690;28;20042;-63
2022/09/23 06:21:42;;;;;;;5.30;3.38;;;;;;;12.18;88.87;96857.53;5028770;28;20041;-64
2022/09/23 06:24:09;;;;;;;7.53;3.83;;;;;;;11.67;87.50;96867.81;5035352;28;20104;-65
2022/09/23 06:26:36;;;;;;;8.10;3.60;;;;;;;12.79;83.01;96859.03;5035946;28;20474;-64
2022/09/23 06:29:03;;;;;;;5.22;3.20;;;;;;;12.69;83.89;96858.91;5031424;28;20040;-65
2022/09/23 06:31:29;;;;;;;10.32;3.40;;;;;;;12.38;87.65;96855.44;5031835;28;20025;-65
2022/09/23 06:33:54;;;;;;;6.65;3.50;;;;;;;11.59;90.52;96868.84;5032067;28;20044;-65
2022/09/23 06:36:20;;;;;;;9.05;3.35;;;;;;;12.10;92.25;96866.84;5031400;28;20025;-63
2022/09/23 06:38:48;;;;;;;7.65;3.30;;;;;;;10.04;100.00;96875.44;5030065;28;20116;-64
2022/09/23 06:41:14;;;;;;;7.38;3.50;;;;;;;10.43;100.00;96878.22;5032366;28;20025;-63
2022/09/23 06:43:39;;;;;;;9.70;3.78;;;;;;;10.63;100.00;96873.50;5030464;28;20152;-66
2022/09/23 06:46:06;;;;;;;7.95;4.03;;;;;;;10.50;100.00;96870.94;5030279;28;20033;-63
2022/09/23 06:48:34;;;;;;;8.55;3.90;;;;;;;10.14;100.00;96870.19;5032023;28;20033;-64
2022/09/23 06:51:02;;;;;;;8.00;4.40;;;;;;;11.48;100.00;96876.13;5031114;28;20033;-62
2022/09/23 06:53:31;;;;;;;5.68;3.63;;;;;;;12.01;96.50;96875.34;5031767;28;20049;-63
2022/09/23 06:55:59;;;;;;;6.88;3.55;;;;;;;13.27;93.03;96868.47;5031196;28;20432;-64
2022/09/23 06:58:25;;;;;;;6.90;3.13;;;;;;;14.15;83.88;96878.56;5030603;28;20344;-64
2022/09/23 07:00:51;;;;;;;7.55;3.40;;;;;;;15.10;78.06;96877.69;5047827;28;20113;-65
2022/09/23 07:03:17;;;;;;;6.32;3.50;;;;;;;14.98;77.12;96880.81;5038722;28;20040;-64
2022/09/23 07:05:42;;;;;;;8.82;4.00;;;;;;;16.20;75.06;96878.03;5030878;28;20394;-64
2022/09/23 07:08:11;;;;;;;8.10;4.45;;;;;;;16.72;66.28;96883.75;5030506;28;20037;-65
2022/09/23 07:10:36;;;;;;;7.63;3.97;;;;;;;16.52;69.25;96877.91;5031571;28;20425;-64
2022/09/23 07:13:03;;;;;;;7.68;3.30;;;;;;;17.48;64.72;96881.31;5033434;28;20041;-63
2022/09/23 07:15:29;;;;;;;6.97;3.33;;;;;;;16.71;63.60;96873.09;5028524;28;20445;-63
2022/09/23 07:17:55;;;;;;;4.55;2.67;;;;;;;17.71;60.95;96866.09;5032539;28;20115;-63
2022/09/23 07:20:21;;;;;;;4.28;2.80;;;;;;;18.64;57.03;96872.66;5030331;28;20052;-64
2022/09/23 07:22:51;;;;;;;5.32;2.80;;;;;;;17.74;58.03;96866.06;5035506;28;20033;-65
2022/09/23 07:25:18;;;;;;;4.72;2.80;;;;;;;19.38;53.26;96870.03;5037086;28;20025;-64
2022/09/23 07:27:45;;;;;;;4.18;2.47;;;;;;;20.18;49.95;96878.59;5036652;28;20029;-63
2022/09/23 07:30:11;;;;;;;6.90;3.03;;;;;;;20.64;48.68;96880.94;5036051;28;20033;-63
2022/09/23 07:32:37;;;;;;;4.82;2.78;;;;;;;19.97;49.57;96879.00;5031098;28;20520;-64
2022/09/23 07:35:02;;;;;;;4.93;3.20;;;;;;;20.22;49.05;96882.09;5031302;28;20417;-65
2022/09/23 07:37:27;;;;;;;4.95;3.08;;;;;;;19.06;51.87;96884.41;5031227;28;20072;-64
2022/09/23 07:39:54;;;;;;;5.38;2.53;;;;;;;19.91;50.45;96897.38;5015182;28;20025;-64
2022/09/23 07:42:20;;;;;;;5.38;3.63;;;;;;;19.40;51.93;96884.28;5030146;28;20487;-64
2022/09/23 07:44:46;;;;;;;6.00;3.53;;;;;;;20.74;49.76;96891.84;5020967;28;20064;-64
2022/09/23 07:47:12;;;;;;;10.55;4.20;;;;;;;22.00;45.92;96893.72;5017713;28;20041;-65
2022/09/23 07:49:38;;;;;;;5.55;3.80;;;;;;;22.14;46.08;96887.78;5028569;28;20055;-65
2022/09/23 07:52:04;;;;;;;6.75;3.67;;;;;;;21.77;46.17;96890.72;5023065;28;20049;-65
2022/09/23 07:54:29;;;;;;;4.50;3.42;;;;;;;21.84;47.00;96886.16;5027730;28;20045;-63
2022/09/23 07:56:55;;;;;;;5.95;3.60;;;;;;;21.28;49.02;96889.88;5023923;28;20046;-64
2022/09/23 07:59:21;;;;;;;9.15;3.97;;;;;;;21.24;48.31;96889.19;5021137;28;20482;-64
2022/09/23 08:01:51;;;;;;;6.20;3.60;;;;;;;22.15;46.84;96886.56;5027372;28;20033;-65
2022/09/23 08:04:29;;;;;;;13.20;4.47;;;;;;;22.35;45.89;96885.69;5017447;28;20095;-65
2022/09/23 08:06:57;;;;;;;8.48;3.97;;;;;;;21.68;47.67;96887.75;5025405;28;20052;-65
2022/09/23 08:09:26;;;;;;;7.40;4.00;;;;;;;20.22;52.24;96876.53;5019622;28;20053;-64
2022/09/23 08:11:52;;;;;;;13.27;8.05;;;;;;;20.15;52.18;96882.25;5026389;28;20037;-65
2022/09/23 08:14:18;;;;;;;9.35;4.35;;;;;;;19.85;54.28;96881.19;5021019;28;20040;-65
2022/09/23 08:16:45;;;;;;;6.88;4.72;;;;;;;20.18;52.69;96883.38;5013681;28;20088;-65
2022/09/23 08:19:11;;;;;;;9.57;4.68;;;;;;;19.96;53.81;96886.53;5020314;28;20064;-65
2022/09/23 08:21:38;;;;;;;6.45;4.75;;;;;;;19.62;55.20;96875.59;5025646;28;20038;-65
2022/09/23 08:24:15;;;;;;;9.55;5.05;;;;;;;19.77;54.09;96876.97;5019082;28;20042;-64
2022/09/23 08:26:41;;;;;;;7.60;4.35;;;;;;;20.75;50.68;96881.50;5019939;28;20056;-65
2022/09/23 08:29:09;;;;;;;7.68;4.47;;;;;;;;;;5019145;28;20050;-65
2022/09/23 08:31:34;;;;;;;6.30;3.60;;;;;;;21.75;48.79;96870.84;5021978;28;20441;-65
2022/09/23 08:34:00;;;;;;;11.23;4.57;;;;;;;21.14;49.38;96868.69;5027595;28;20041;-65
2022/09/23 08:36:26;;;;;;;6.40;4.10;;;;;;;20.16;52.69;96855.22;5023840;28;20046;-67
2022/09/23 08:38:52;;;;;;;8.13;5.22;;;;;;;16.59;67.88;96855.00;5029372;28;20049;-64
2022/09/23 08:41:32;;;;;;;8.70;4.72;;;;;;;17.87;63.08;96863.59;5021127;28;20041;-65
2022/09/23 08:44:02;;;;;;;5.28;4.60;;;;;;;16.05;70.13;96863.47;5024134;28;20033;-65
2022/09/23 08:46:36;;;;;;;7.55;5.20;;;;;;;15.97;75.16;96861.91;5036309;28;20033;-65
2022/09/23 08:49:06;;;;;;;9.85;5.07;;;;;;;17.28;67.11;96866.44;5023539;28;20086;-64
2022/09/23 08:51:45;;;;;;;8.88;4.97;;;;;;;19.15;60.54;96867.22;5025045;28;20549;-64
2022/09/23 08:54:12;;;;;;;6.80;4.88;;;;;;;19.64;57.30;96871.22;5018907;28;20041;-65
2022/09/23 08:56:38;;;;;;;8.50;4.90;;;;;;;19.71;57.00;96870.28;5025997;28;20132;-65
2022/09/23 08:59:13;;;;;;;6.05;4.55;;;;;;;19.86;57.25;96873.63;5019827;28;20514;-64
2022/09/23 09:01:55;;;;;;;6.32;5.03;;;;;;;19.58;57.83;96870.09;5022369;28;20171;-64
2022/09/23 09:04:36;;;;;;;9.05;4.95;;;;;;;19.71;56.28;96870.28;5019993;28;20033;-65
2022/09/23 09:07:12;;;;;;;6.20;4.50;;;;;;;20.13;54.02;96862.44;5024354;28;20072;-64
2022/09/23 09:09:50;;;;;;;6.50;5.00;;;;;;;20.18;55.28;96864.69;5023447;28;20049;-65
2022/09/23 09:12:43;;;;;;;5.57;4.13;;;;;;;20.61;52.27;96863.88;5003744;28;20070;-64
2022/09/23 09:15:12;;;;;;;9.30;5.30;;;;;;;21.03;51.82;96862.59;5019327;28;20498;-64
2022/09/23 09:18:00;;;;;;;7.03;4.70;;;;;;;19.81;55.10;96865.78;5020374;28;20037;-64
2022/09/23 09:20:38;;;;;;;16.80;9.85;;;;;;;20.51;52.63;96852.94;5022957;28;20052;-65
2022/09/23 09:23:10;;;;;;;8.55;5.65;;;;;;;19.87;54.39;96858.53;5025758;28;20038;-64
2022/09/23 09:25:47;;;;;;;8.13;5.38;;;;;;;19.18;57.48;96842.19;5023653;28;20406;-63
2022/09/23 09:28:35;;;;;;;10.75;5.13;;;;;;;19.63;55.92;96844.63;5018426;28;20045;-63
2022/09/23 09:31:10;;;;;;;9.82;6.03;;;;;;;19.09;57.99;96839.16;5023905;28;20037;-63
2022/09/23 09:34:15;;;;;;;9.40;5.85;;;;;;;18.82;59.94;96841.91;5023697;28;20104;-63
2022/09/23 09:37:15;;;;;;;7.18;4.88;;;;;;;18.68;59.82;96842.88;5021922;28;20442;-64
2022/09/23 09:39:40;;;;;;;;;;;;;;;18.93;58.69;96830.66;5021107;28;20376;-64
2022/09/23 09:42:09;;;;;;;7.50;5.37;;;;;;;19.00;58.63;96828.56;5021551;28;19913;-65
2022/09/23 09:44:59;;;;;;;14.35;6.40;;;;;;;19.21;58.88;96829.44;5027472;28;20187;-63
2022/09/23 09:47:55;;;;;;;11.20;4.90;;;;;;;18.77;60.49;96822.94;5021223;28;20046;-64
2022/09/23 09:50:43;;;;;;;13.90;7.60;;;;;;;17.92;64.03;96816.03;5019841;28;20056;-64
2022/09/23 09:53:18;;;;;;;11.38;5.55;;;;;;;17.83;65.23;96818.50;5020716;28;20104;-63
2022/09/23 09:55:44;;;;;;;7.90;5.38;;;;;;;18.06;64.16;96817.88;5025769;28;20033;-64
2022/09/23 09:58:15;;;;;;;8.65;5.70;;;;;;;17.64;65.00;96811.56;5035720;28;20065;-64
2022/09/23 10:00:44;;;;;;;19.00;6.00;;;;;;;17.72;67.10;96813.06;5023701;28;20065;-65
2022/09/23 10:03:13;;;;;;;8.30;6.22;;;;;;;17.61;65.83;96811.59;5019143;28;20281;-65
2022/09/23 10:05:44;;;;;;;15.13;7.45;;;;;;;17.70;66.08;96800.81;5019336;28;20041;-63
2022/09/23 10:08:20;;;;;;;18.73;6.97;;;;;;;17.58;67.07;96802.91;5021018;28;20509;-64
2022/09/23 10:10:57;;;;;;;10.00;5.97;;;;;;;17.67;65.97;96801.66;5024966;28;20041;-64
2022/09/23 10:13:23;;;;;;;16.15;8.35;;;;;;;17.88;66.42;96800.66;5021533;28;20042;-63
2022/09/23 10:15:53;;;;;;;11.23;5.97;;;;;;;17.93;64.99;96802.97;5025701;28;20049;-62
2022/09/23 10:18:27;;;;;;;;;;;;;;;18.11;65.08;96795.25;5019642;28;20045;-63
2022/09/23 10:21:00;;;;;;;11.13;6.15;;;;;;;17.80;66.53;96791.59;5026628;28;19913;-63
2022/09/23 10:23:28;;;;;;;8.77;6.05;;;;;;;17.94;65.64;96797.03;5021343;28;20505;-64
2022/09/23 10:25:59;;;;;;;11.63;5.68;;;;;;;17.84;66.26;96800.66;5025865;28;20041;-63
2022/09/23 10:28:45;;;;;;;10.68;6.28;;;;;;;18.06;66.39;96783.81;5022081;28;20699;-64
2022/09/23 10:31:11;;;;;;;7.70;5.53;;;;;;;17.82;67.80;96782.88;5018962;28;20098;-66
2022/09/23 10:33:49;;;;;;;10.10;5.95;;;;;;;18.88;63.61;96777.19;5026799;28;20053;-62
2022/09/23 10:36:16;;;;;;;13.82;5.35;;;;;;;18.79;63.86;96784.47;5002563;28;20090;-65
2022/09/23 10:38:42;;;;;;;8.63;5.68;;;;;;;19.23;61.32;96785.38;5024900;28;20041;-64
2022/09/23 10:47:32;;;;;;;11.40;5.95;;;;;;;19.28;61.16;96780.16;5013273;28;20044;-64
2022/09/23 10:50:25;;;;;;;19.05;7.28;;;;;;;19.58;59.74;96770.09;5025142;28;20056;-66
2022/09/23 10:53:03;;;;;;;7.85;5.78;;;;;;;19.47;60.61;96775.06;5026759;28;20054;-64
2022/09/23 10:55:48;;;;;;;11.88;5.90;;;;;;;19.97;59.24;96776.94;5023452;28;20037;-64
2022/09/23 10:58:25;;;;;;;8.90;5.20;;;;;;;20.14;57.45;96766.66;5019152;28;20057;-63
2022/09/23 11:01:28;;;;;;;9.90;5.55;;;;;;;20.54;58.09;96774.94;5025557;28;20045;-66
2022/09/23 11:04:00;;;;;;;13.82;6.25;;;;;;;19.85;60.06;96772.78;5023728;28;20049;-65
2022/09/23 11:06:46;;;;;;;7.82;5.50;;;;;;;19.77;60.22;96767.78;5021720;28;20565;-65
2022/09/23 11:09:32;;;;;;;13.93;7.15;;;;;;;20.04;59.86;96771.25;5020649;28;20050;-64
2022/09/23 11:12:07;;;;;;;9.95;6.82;;;;;;;19.51;62.01;96769.44;5026865;28;20052;-64
2022/09/23 11:14:50;;;;;;;8.85;6.20;;;;;;;19.98;60.31;96763.81;5024086;28;20045;-64
2022/09/23 11:17:40;;;;;;;11.38;5.97;;;;;;;20.23;59.14;96761.31;5016584;28;20120;-64
2022/09/23 11:20:14;;;;;;;10.60;6.47;;;;;;;19.98;60.68;96758.25;5016336;28;20041;-63
2022/09/23 11:23:03;;;;;;;8.57;5.25;;;;;;;20.80;58.57;96759.28;5025544;28;20053;-65
2022/09/23 11:25:46;;;;;;;9.02;5.13;;;;;;;21.13;56.58;96755.75;5025163;28;20722;-65
2022/09/23 11:28:29;;;;;;;15.48;7.05;;;;;;;21.58;54.09;96752.25;5021010;28;20056;-64
2022/09/23 11:31:19;;;;;;;9.55;5.90;;;;;;;20.85;56.10;96748.84;5025199;28;20048;-64
2022/09/23 11:34:40;;;;;;;8.57;5.65;;;;;;;21.30;55.08;96748.16;5003580;28;20045;-63
2022/09/23 11:37:13;;;;;;;10.10;5.88;;;;;;;21.16;56.28;96738.94;5019567;28;20048;-64
2022/09/23 11:40:04;;;;;;;10.57;5.93;;;;;;;21.72;53.53;96739.94;5025196;28;20325;-64
2022/09/23 11:42:56;;;;;;;9.15;5.70;;;;;;;21.80;52.86;96732.16;5004640;28;20398;-65
2022/09/23 11:45:46;;;;;;;8.48;5.40;;;;;;;22.13;52.14;96722.44;4999574;28;20213;-64
2022/09/23 11:48:21;;;;;;;15.98;6.57;;;;;;;22.56;51.15;96725.19;5022180;28;20115;-63
2022/09/23 11:50:56;;;;;;;11.60;6.40;;;;;;;22.00;52.52;96720.84;5024657;28;20053;-65
2022/09/23 11:54:02;;;;;;;7.80;5.70;;;;;;;22.18;52.73;96718.28;5016099;28;20129;-64
2022/09/23 11:56:31;;;;;;;11.68;5.97;;;;;;;21.26;55.69;96719.63;4994004;28;20041;-64
2022/09/23 11:59:07;;;;;;;13.43;6.72;;;;;;;21.46;55.29;96711.94;4986872;28;20046;-65
2022/09/23 12:01:41;;;;;;;14.05;7.00;;;;;;;21.52;54.70;96715.00;5014926;28;20053;-64
2022/09/23 12:04:12;;;;;;;11.70;6.18;;;;;;;21.17;55.31;96709.88;5020467;28;20037;-64
2022/09/23 12:06:46;;;;;;;10.02;6.70;;;;;;;20.73;56.95;96706.59;5025418;28;20496;-63